Frazer, MT (59225)

9:17 AM MDT on April 28, 2017 (GMT -0600)
ME0034 | | Change Station

Elev 2217 ft 48.11 °N, 105.89 °W | Updated 51 minutes ago

Overcast
Overcast
39.0 °F
Feels Like 35 °F
N
6.0
Wind Variable Wind from ENE
Gusts 9.0 mph

Today
High -- | Low -- °F
--% Chance of Precip.
Yesterday
High -- | Low -- °F
Precip. -- in
Pressure 30.06 in
Visibility 10.0 miles
Clouds Overcast 11000 ft
Windchill 35 °F
Dew Point 21 °F
Humidity 49%
Rainfall 0.00 in
Snow Depth Not available.
5:50 AM 8:13 PM
Waxing Crescent, 7% visible
METAR KOLF 281453Z AUTO 08007KT 10SM OVC110 06/M04 A3001 RMK AO2 SLP178 T00611044 51020
Pressure 30.06 in
Visibility 10.0 miles
Clouds Overcast 11000 ft
Windchill 35 °F
Dew Point 21 °F
Humidity 49%
Rainfall 0.00 in
Snow Depth Not available.
5:50 AM 8:13 PM
Waxing Crescent, 7% visible
METAR KOLF 281453Z AUTO 08007KT 10SM OVC110 06/M04 A3001 RMK AO2 SLP178 T00611044 51020

Get Severe Weather Alerts

Thanks for signing up!

Be on the lookout for a verification email in your inbox.

You'll start receiving the daily forecast at 8 AM.

×

10-Day Weather Forecast

Almanac

Astronomy

Apr. 28, 2017 Rise Set
Actual Time
Civil Twilight
Nautical Twilight
Astronomical Twilight
Moon
Length of Visible Light
Length of Day
Tomorrow will be .
, % of the Moon is Illuminated

Today's Extremes

State Highs State Lows

Community

WunderPhotos

WunderBlog® & News

Nearby

Air Quality

  Air Quality AQ Index Pollutant
Not available.

Snow Depth

Station Depth Elevation

Earthquake Activity

City Distance Mag. Time & Date
Minimum magnitude displayed is 2.5.

Coastal Water Temperatures

Place Temperature

Stations

Nearby Weather Stations

Station Location Temp. Windchill Dew Point Humidity Wind Precip. Elev Updated Type
                   

Watches & Warnings

There are currently no watches in effect.